Ross-on-Wye, United Kingdom
Current Conditions -  °F | °C
As of 5:20 PM on Sunday 23 Nov 2014 (Local Time) from EGBJ Reporting Station
Few Clouds Few Clouds  
Wind Chill: 43°   Ceiling: Unl
Heat Index: 43°   Visibility: 6mi
Dew Point: 43°   Wind: 0mph
Humidity: 100%   Direction: NA
Pressure: 30.09"   Gusts: NA
Location:  51.92°N, 2.57°W
Report Text: EGBJ 231720Z 00000KT 9999 FEW010 06/06 Q1019
Loading
Personal Weather Stations






























Interactive Weather Map New forecast layout! Learn more

10-Day Weather Forecast

Advertisements
Track Severe Weather on mobile